sensor_id;sensor_type;location;lat;lon;timestamp;temperature;humidity
18781;DHT22;9519;51.890;8.970;2023-04-06T00:03:36;2.80;96.00
18781;DHT22;9519;51.890;8.970;2023-04-06T00:08:39;2.70;96.20
18781;DHT22;9519;51.890;8.970;2023-04-06T00:18:44;2.70;96.60
18781;DHT22;9519;51.890;8.970;2023-04-06T00:23:47;2.70;96.70
18781;DHT22;9519;51.890;8.970;2023-04-06T00:38:57;2.50;68.20
18781;DHT22;9519;51.890;8.970;2023-04-06T00:43:59;2.70;82.20
18781;DHT22;9519;51.890;8.970;2023-04-06T00:54:05;2.70;69.00
18781;DHT22;9519;51.890;8.970;2023-04-06T01:04:11;2.40;84.30
18781;DHT22;9519;51.890;8.970;2023-04-06T01:09:14;2.30;69.20
18781;DHT22;9519;51.890;8.970;2023-04-06T01:14:16;2.10;69.50
18781;DHT22;9519;51.890;8.970;2023-04-06T01:19:19;1.90;69.20
18781;DHT22;9519;51.890;8.970;2023-04-06T01:24:23;2.20;98.10
18781;DHT22;9519;51.890;8.970;2023-04-06T01:34:28;2.20;85.80
18781;DHT22;9519;51.890;8.970;2023-04-06T01:39:31;2.20;70.00
18781;DHT22;9519;51.890;8.970;2023-04-06T01:49:36;2.30;96.00
18781;DHT22;9519;51.890;8.970;2023-04-06T01:54:39;2.10;70.30
18781;DHT22;9519;51.890;8.970;2023-04-06T01:59:41;2.30;85.30
18781;DHT22;9519;51.890;8.970;2023-04-06T02:09:47;2.10;72.70
18781;DHT22;9519;51.890;8.970;2023-04-06T02:19:58;1.90;71.00
18781;DHT22;9519;51.890;8.970;2023-04-06T02:25:02;2.00;99.50
18781;DHT22;9519;51.890;8.970;2023-04-06T02:30:05;1.80;80.30
18781;DHT22;9519;51.890;8.970;2023-04-06T02:40:13;1.70;99.90
18781;DHT22;9519;51.890;8.970;2023-04-06T02:45:15;1.60;99.90
18781;DHT22;9519;51.890;8.970;2023-04-06T02:55:21;2.10;91.40
18781;DHT22;9519;51.890;8.970;2023-04-06T03:05:26;1.80;99.90
18781;DHT22;9519;51.890;8.970;2023-04-06T03:10:29;1.80;99.90
18781;DHT22;9519;51.890;8.970;2023-04-06T03:25:37;1.60;73.00
18781;DHT22;9519;51.890;8.970;2023-04-06T03:35:43;1.60;98.30
18781;DHT22;9519;51.890;8.970;2023-04-06T03:40:47;1.60;73.70
18781;DHT22;9519;51.890;8.970;2023-04-06T03:45:49;1.40;94.10
18781;DHT22;9519;51.890;8.970;2023-04-06T03:55:55;1.70;99.90
18781;DHT22;9519;51.890;8.970;2023-04-06T04:00:57;1.80;99.90
18781;DHT22;9519;51.890;8.970;2023-04-06T04:11:03;1.50;93.00
18781;DHT22;9519;51.890;8.970;2023-04-06T04:16:05;1.80;91.30
18781;DHT22;9519;51.890;8.970;2023-04-06T04:26:11;1.60;99.90
18781;DHT22;9519;51.890;8.970;2023-04-06T04:31:13;1.50;99.90
18781;DHT22;9519;51.890;8.970;2023-04-06T04:41:22;1.80;75.30
18781;DHT22;9519;51.890;8.970;2023-04-06T04:56:30;0.80;74.80
18781;DHT22;9519;51.890;8.970;2023-04-06T05:01:32;1.40;96.60
18781;DHT22;9519;51.890;8.970;2023-04-06T05:06:35;1.50;97.80
18781;DHT22;9519;51.890;8.970;2023-04-06T05:11:38;1.70;93.00
18781;DHT22;9519;51.890;8.970;2023-04-06T05:16:40;1.50;98.90
18781;DHT22;9519;51.890;8.970;2023-04-06T05:26:47;1.40;79.80
18781;DHT22;9519;51.890;8.970;2023-04-06T05:31:51;1.70;99.90
18781;DHT22;9519;51.890;8.970;2023-04-06T05:36:53;1.60;99.90
18781;DHT22;9519;51.890;8.970;2023-04-06T05:41:56;1.70;77.20
18781;DHT22;9519;51.890;8.970;2023-04-06T05:46:58;1.80;99.90
18781;DHT22;9519;51.890;8.970;2023-04-06T05:57:06;1.20;77.80
18781;DHT22;9519;51.890;8.970;2023-04-06T06:12:14;2.20;99.90
18781;DHT22;9519;51.890;8.970;2023-04-06T06:17:16;0.20;77.30
18781;DHT22;9519;51.890;8.970;2023-04-06T06:22:19;2.40;99.90
18781;DHT22;9519;51.890;8.970;2023-04-06T06:27:22;2.50;95.90
18781;DHT22;9519;51.890;8.970;2023-04-06T06:32:24;2.80;99.90
18781;DHT22;9519;51.890;8.970;2023-04-06T06:37:27;0.20;77.40
18781;DHT22;9519;51.890;8.970;2023-04-06T06:42:30;4.60;80.20
18781;DHT22;9519;51.890;8.970;2023-04-06T06:47:32;2.90;99.90
18781;DHT22;9519;51.890;8.970;2023-04-06T06:52:35;3.00;99.90
18781;DHT22;9519;51.890;8.970;2023-04-06T06:57:38;3.10;99.90
18781;DHT22;9519;51.890;8.970;2023-04-06T07:02:42;3.60;99.90
18781;DHT22;9519;51.890;8.970;2023-04-06T07:07:45;3.50;99.90
18781;DHT22;9519;51.890;8.970;2023-04-06T07:12:48;3.80;99.90
18781;DHT22;9519;51.890;8.970;2023-04-06T07:17:51;3.90;99.90
18781;DHT22;9519;51.890;8.970;2023-04-06T07:22:55;3.90;81.30
18781;DHT22;9519;51.890;8.970;2023-04-06T07:27:58;4.10;81.60
18781;DHT22;9519;51.890;8.970;2023-04-06T07:33:00;4.10;99.90
18781;DHT22;9519;51.890;8.970;2023-04-06T07:38:03;4.70;99.90
18781;DHT22;9519;51.890;8.970;2023-04-06T07:43:08;4.60;81.80
18781;DHT22;9519;51.890;8.970;2023-04-06T07:48:10;4.80;81.80
18781;DHT22;9519;51.890;8.970;2023-04-06T07:53:12;5.00;81.50
18781;DHT22;9519;51.890;8.970;2023-04-06T07:58:16;5.10;81.20
18781;DHT22;9519;51.890;8.970;2023-04-06T08:03:18;5.30;81.00
18781;DHT22;9519;51.890;8.970;2023-04-06T08:08:25;5.50;80.80
18781;DHT22;9519;51.890;8.970;2023-04-06T08:13:29;5.70;80.70
18781;DHT22;9519;51.890;8.970;2023-04-06T08:18:31;5.90;80.50
18781;DHT22;9519;51.890;8.970;2023-04-06T08:23:33;6.10;80.10
18781;DHT22;9519;51.890;8.970;2023-04-06T08:28:38;6.40;79.90
18781;DHT22;9519;51.890;8.970;2023-04-06T08:33:40;6.50;79.50
18781;DHT22;9519;51.890;8.970;2023-04-06T08:38:42;6.70;79.10
18781;DHT22;9519;51.890;8.970;2023-04-06T08:43:47;6.90;79.10
18781;DHT22;9519;51.890;8.970;2023-04-06T08:48:51;7.10;78.10
18781;DHT22;9519;51.890;8.970;2023-04-06T08:53:55;7.20;77.40
18781;DHT22;9519;51.890;8.970;2023-04-06T08:59:00;7.40;77.10
18781;DHT22;9519;51.890;8.970;2023-04-06T09:04:03;7.50;76.40
18781;DHT22;9519;51.890;8.970;2023-04-06T09:09:09;7.80;76.20
18781;DHT22;9519;51.890;8.970;2023-04-06T09:14:14;8.00;75.80
18781;DHT22;9519;51.890;8.970;2023-04-06T09:19:17;8.20;75.70
18781;DHT22;9519;51.890;8.970;2023-04-06T09:24:19;8.30;75.00
18781;DHT22;9519;51.890;8.970;2023-04-06T09:29:27;8.50;75.70
18781;DHT22;9519;51.890;8.970;2023-04-06T09:34:30;8.80;74.50
18781;DHT22;9519;51.890;8.970;2023-04-06T09:39:32;9.00;74.40
18781;DHT22;9519;51.890;8.970;2023-04-06T09:44:36;9.20;74.00
18781;DHT22;9519;51.890;8.970;2023-04-06T09:49:38;9.40;73.70
18781;DHT22;9519;51.890;8.970;2023-04-06T09:54:42;9.70;72.30
18781;DHT22;9519;51.890;8.970;2023-04-06T09:59:55;9.90;72.00
18781;DHT22;9519;51.890;8.970;2023-04-06T10:05:12;10.10;70.90
18781;DHT22;9519;51.890;8.970;2023-04-06T10:10:18;10.20;70.30
18781;DHT22;9519;51.890;8.970;2023-04-06T10:15:23;10.30;70.00
18781;DHT22;9519;51.890;8.970;2023-04-06T10:20:29;10.50;70.10
18781;DHT22;9519;51.890;8.970;2023-04-06T10:25:37;10.70;70.10
18781;DHT22;9519;51.890;8.970;2023-04-06T10:30:42;10.80;70.30
18781;DHT22;9519;51.890;8.970;2023-04-06T10:35:45;11.00;69.10
18781;DHT22;9519;51.890;8.970;2023-04-06T10:40:48;11.20;69.50
18781;DHT22;9519;51.890;8.970;2023-04-06T10:45:57;11.30;68.50
18781;DHT22;9519;51.890;8.970;2023-04-06T10:51:01;11.40;68.60
18781;DHT22;9519;51.890;8.970;2023-04-06T10:56:04;11.50;67.80
18781;DHT22;9519;51.890;8.970;2023-04-06T11:01:14;11.70;67.20
18781;DHT22;9519;51.890;8.970;2023-04-06T11:06:19;11.80;67.60
18781;DHT22;9519;51.890;8.970;2023-04-06T11:11:22;12.00;67.20
18781;DHT22;9519;51.890;8.970;2023-04-06T11:16:30;12.20;67.00
18781;DHT22;9519;51.890;8.970;2023-04-06T11:21:35;12.40;65.80
18781;DHT22;9519;51.890;8.970;2023-04-06T11:26:41;12.60;64.50
18781;DHT22;9519;51.890;8.970;2023-04-06T11:31:48;12.80;64.10
18781;DHT22;9519;51.890;8.970;2023-04-06T11:36:55;12.90;62.80
18781;DHT22;9519;51.890;8.970;2023-04-06T11:42:00;13.00;62.60
18781;DHT22;9519;51.890;8.970;2023-04-06T11:47:06;13.10;61.40
18781;DHT22;9519;51.890;8.970;2023-04-06T11:52:16;13.20;60.10
18781;DHT22;9519;51.890;8.970;2023-04-06T11:57:21;13.20;59.90
18781;DHT22;9519;51.890;8.970;2023-04-06T12:02:26;13.40;60.60
18781;DHT22;9519;51.890;8.970;2023-04-06T12:07:28;13.50;59.60
18781;DHT22;9519;51.890;8.970;2023-04-06T12:12:31;13.60;58.50
18781;DHT22;9519;51.890;8.970;2023-04-06T12:17:35;13.80;57.90
18781;DHT22;9519;51.890;8.970;2023-04-06T12:22:37;13.90;56.70
18781;DHT22;9519;51.890;8.970;2023-04-06T12:27:39;14.10;56.10
18781;DHT22;9519;51.890;8.970;2023-04-06T12:32:43;14.30;55.10
18781;DHT22;9519;51.890;8.970;2023-04-06T12:37:46;14.40;54.50
18781;DHT22;9519;51.890;8.970;2023-04-06T12:42:48;14.60;54.40
18781;DHT22;9519;51.890;8.970;2023-04-06T12:47:52;14.80;55.60
18781;DHT22;9519;51.890;8.970;2023-04-06T12:52:54;15.00;54.50
18781;DHT22;9519;51.890;8.970;2023-04-06T12:57:56;15.20;54.30
18781;DHT22;9519;51.890;8.970;2023-04-06T13:03:00;15.30;53.70
18781;DHT22;9519;51.890;8.970;2023-04-06T13:08:02;15.60;53.80
18781;DHT22;9519;51.890;8.970;2023-04-06T13:13:04;15.80;53.30
18781;DHT22;9519;51.890;8.970;2023-04-06T13:18:08;16.00;52.90
18781;DHT22;9519;51.890;8.970;2023-04-06T13:23:10;16.20;51.80
18781;DHT22;9519;51.890;8.970;2023-04-06T13:28:13;16.30;51.30
18781;DHT22;9519;51.890;8.970;2023-04-06T13:33:16;16.20;49.40
18781;DHT22;9519;51.890;8.970;2023-04-06T13:38:19;16.10;50.80
18781;DHT22;9519;51.890;8.970;2023-04-06T13:43:21;16.20;52.00
18781;DHT22;9519;51.890;8.970;2023-04-06T13:48:27;16.40;51.30
18781;DHT22;9519;51.890;8.970;2023-04-06T13:53:30;16.70;50.80
18781;DHT22;9519;51.890;8.970;2023-04-06T13:58:32;16.90;48.80
18781;DHT22;9519;51.890;8.970;2023-04-06T14:03:36;16.80;49.30
18781;DHT22;9519;51.890;8.970;2023-04-06T14:08:39;17.10;49.10
18781;DHT22;9519;51.890;8.970;2023-04-06T14:13:41;17.40;49.30
18781;DHT22;9519;51.890;8.970;2023-04-06T14:18:45;17.60;49.20
18781;DHT22;9519;51.890;8.970;2023-04-06T14:23:47;17.60;48.80
18781;DHT22;9519;51.890;8.970;2023-04-06T14:28:49;17.70;48.20
18781;DHT22;9519;51.890;8.970;2023-04-06T14:33:54;18.00;48.60
18781;DHT22;9519;51.890;8.970;2023-04-06T14:38:57;18.40;48.10
18781;DHT22;9519;51.890;8.970;2023-04-06T14:43:59;18.70;48.20
18781;DHT22;9519;51.890;8.970;2023-04-06T14:49:03;18.80;45.20
18781;DHT22;9519;51.890;8.970;2023-04-06T14:54:07;18.80;44.40
18781;DHT22;9519;51.890;8.970;2023-04-06T14:59:09;18.70;44.30
18781;DHT22;9519;51.890;8.970;2023-04-06T15:04:13;18.50;44.10
18781;DHT22;9519;51.890;8.970;2023-04-06T15:09:15;18.40;45.60
18781;DHT22;9519;51.890;8.970;2023-04-06T15:14:17;18.50;46.30
18781;DHT22;9519;51.890;8.970;2023-04-06T15:19:21;18.50;45.80
18781;DHT22;9519;51.890;8.970;2023-04-06T15:24:23;18.40;44.00
18781;DHT22;9519;51.890;8.970;2023-04-06T15:29:25;18.20;43.80
18781;DHT22;9519;51.890;8.970;2023-04-06T15:34:30;18.10;44.20
18781;DHT22;9519;51.890;8.970;2023-04-06T15:39:34;18.00;43.60
18781;DHT22;9519;51.890;8.970;2023-04-06T15:44:37;17.80;44.20
18781;DHT22;9519;51.890;8.970;2023-04-06T15:49:40;17.50;43.20
18781;DHT22;9519;51.890;8.970;2023-04-06T15:54:42;17.20;44.80
18781;DHT22;9519;51.890;8.970;2023-04-06T15:59:44;16.90;45.30
18781;DHT22;9519;51.890;8.970;2023-04-06T16:04:48;16.90;44.70
18781;DHT22;9519;51.890;8.970;2023-04-06T16:09:50;16.70;44.70
18781;DHT22;9519;51.890;8.970;2023-04-06T16:14:52;16.70;45.60
18781;DHT22;9519;51.890;8.970;2023-04-06T16:19:55;16.70;45.80
18781;DHT22;9519;51.890;8.970;2023-04-06T16:24:58;16.60;45.60
18781;DHT22;9519;51.890;8.970;2023-04-06T16:30:00;16.40;45.80
18781;DHT22;9519;51.890;8.970;2023-04-06T16:35:04;16.30;47.10
18781;DHT22;9519;51.890;8.970;2023-04-06T16:40:08;16.20;46.40
18781;DHT22;9519;51.890;8.970;2023-04-06T16:45:11;16.10;46.50
18781;DHT22;9519;51.890;8.970;2023-04-06T16:50:16;16.00;46.90
18781;DHT22;9519;51.890;8.970;2023-04-06T16:55:18;15.90;47.30
18781;DHT22;9519;51.890;8.970;2023-04-06T17:00:21;15.70;46.70
18781;DHT22;9519;51.890;8.970;2023-04-06T17:05:24;15.40;46.70
18781;DHT22;9519;51.890;8.970;2023-04-06T17:10:27;15.20;47.00
18781;DHT22;9519;51.890;8.970;2023-04-06T17:15:29;15.00;47.20
18781;DHT22;9519;51.890;8.970;2023-04-06T17:20:32;14.80;47.30
18781;DHT22;9519;51.890;8.970;2023-04-06T17:25:36;14.60;47.30
18781;DHT22;9519;51.890;8.970;2023-04-06T17:30:38;14.50;47.70
18781;DHT22;9519;51.890;8.970;2023-04-06T17:35:43;14.40;48.00
18781;DHT22;9519;51.890;8.970;2023-04-06T17:40:45;14.40;48.70
18781;DHT22;9519;51.890;8.970;2023-04-06T17:45:48;14.30;49.30
18781;DHT22;9519;51.890;8.970;2023-04-06T17:50:52;14.20;49.70
18781;DHT22;9519;51.890;8.970;2023-04-06T17:55:54;14.10;50.20
18781;DHT22;9519;51.890;8.970;2023-04-06T18:00:57;14.00;50.10
18781;DHT22;9519;51.890;8.970;2023-04-06T18:06:09;13.80;50.30
18781;DHT22;9519;51.890;8.970;2023-04-06T18:11:16;13.70;50.70
18781;DHT22;9519;51.890;8.970;2023-04-06T18:16:19;13.60;50.90
18781;DHT22;9519;51.890;8.970;2023-04-06T18:21:22;13.40;51.00
18781;DHT22;9519;51.890;8.970;2023-04-06T18:26:26;13.30;51.30
18781;DHT22;9519;51.890;8.970;2023-04-06T18:31:29;13.20;51.40
18781;DHT22;9519;51.890;8.970;2023-04-06T18:36:32;13.00;51.60
18781;DHT22;9519;51.890;8.970;2023-04-06T18:41:35;13.00;52.00
18781;DHT22;9519;51.890;8.970;2023-04-06T18:46:37;12.90;52.20
18781;DHT22;9519;51.890;8.970;2023-04-06T18:51:41;12.90;52.50
18781;DHT22;9519;51.890;8.970;2023-04-06T18:56:43;12.90;52.70
18781;DHT22;9519;51.890;8.970;2023-04-06T19:01:45;12.80;52.80
18781;DHT22;9519;51.890;8.970;2023-04-06T19:06:54;12.80;53.20
18781;DHT22;9519;51.890;8.970;2023-04-06T19:11:56;12.70;53.40
18781;DHT22;9519;51.890;8.970;2023-04-06T19:16:59;12.70;53.40
18781;DHT22;9519;51.890;8.970;2023-04-06T19:22:02;12.60;53.60
18781;DHT22;9519;51.890;8.970;2023-04-06T19:27:04;12.50;53.80
18781;DHT22;9519;51.890;8.970;2023-04-06T19:32:06;12.50;54.00
18781;DHT22;9519;51.890;8.970;2023-04-06T19:37:12;12.40;54.30
18781;DHT22;9519;51.890;8.970;2023-04-06T19:42:14;12.30;54.60
18781;DHT22;9519;51.890;8.970;2023-04-06T19:47:20;12.20;54.80
18781;DHT22;9519;51.890;8.970;2023-04-06T19:52:24;12.10;55.00
18781;DHT22;9519;51.890;8.970;2023-04-06T19:57:26;12.00;55.20
18781;DHT22;9519;51.890;8.970;2023-04-06T20:02:28;12.00;55.30
18781;DHT22;9519;51.890;8.970;2023-04-06T20:07:31;11.90;55.60
18781;DHT22;9519;51.890;8.970;2023-04-06T20:12:34;11.80;55.80
18781;DHT22;9519;51.890;8.970;2023-04-06T20:17:36;11.70;56.10
18781;DHT22;9519;51.890;8.970;2023-04-06T20:22:40;11.60;56.30
18781;DHT22;9519;51.890;8.970;2023-04-06T20:27:42;11.50;56.80
18781;DHT22;9519;51.890;8.970;2023-04-06T20:32:45;11.50;57.10
18781;DHT22;9519;51.890;8.970;2023-04-06T20:37:48;11.40;57.30
18781;DHT22;9519;51.890;8.970;2023-04-06T20:42:53;11.40;57.60
18781;DHT22;9519;51.890;8.970;2023-04-06T20:47:55;11.40;57.90
18781;DHT22;9519;51.890;8.970;2023-04-06T20:52:59;11.30;58.00
18781;DHT22;9519;51.890;8.970;2023-04-06T20:58:01;11.30;58.40
18781;DHT22;9519;51.890;8.970;2023-04-06T21:03:06;11.30;58.50
18781;DHT22;9519;51.890;8.970;2023-04-06T21:08:10;11.30;58.60
18781;DHT22;9519;51.890;8.970;2023-04-06T21:13:12;11.20;58.80
18781;DHT22;9519;51.890;8.970;2023-04-06T21:18:14;11.20;59.00
18781;DHT22;9519;51.890;8.970;2023-04-06T21:23:18;11.20;59.30
18781;DHT22;9519;51.890;8.970;2023-04-06T21:28:21;11.20;59.50
18781;DHT22;9519;51.890;8.970;2023-04-06T21:33:23;11.20;59.60
18781;DHT22;9519;51.890;8.970;2023-04-06T21:38:27;11.20;60.60
18781;DHT22;9519;51.890;8.970;2023-04-06T21:43:29;11.10;60.10
18781;DHT22;9519;51.890;8.970;2023-04-06T21:48:34;11.10;60.30
18781;DHT22;9519;51.890;8.970;2023-04-06T21:53:37;11.10;60.60
18781;DHT22;9519;51.890;8.970;2023-04-06T21:58:41;11.10;60.60
18781;DHT22;9519;51.890;8.970;2023-04-06T22:03:43;11.10;60.80
18781;DHT22;9519;51.890;8.970;2023-04-06T22:08:48;11.00;60.80
18781;DHT22;9519;51.890;8.970;2023-04-06T22:13:50;10.90;60.90
18781;DHT22;9519;51.890;8.970;2023-04-06T22:18:52;10.80;61.10
18781;DHT22;9519;51.890;8.970;2023-04-06T22:23:56;10.70;61.40
18781;DHT22;9519;51.890;8.970;2023-04-06T22:28:58;10.60;61.60
18781;DHT22;9519;51.890;8.970;2023-04-06T22:34:00;10.60;61.80
18781;DHT22;9519;51.890;8.970;2023-04-06T22:39:03;10.60;62.30
18781;DHT22;9519;51.890;8.970;2023-04-06T22:44:05;10.50;63.00
18781;DHT22;9519;51.890;8.970;2023-04-06T22:49:07;10.40;63.70
18781;DHT22;9519;51.890;8.970;2023-04-06T22:54:11;10.30;64.20
18781;DHT22;9519;51.890;8.970;2023-04-06T22:59:13;10.20;65.00
18781;DHT22;9519;51.890;8.970;2023-04-06T23:04:16;10.00;67.00
18781;DHT22;9519;51.890;8.970;2023-04-06T23:09:19;9.90;67.20
18781;DHT22;9519;51.890;8.970;2023-04-06T23:14:21;9.80;67.40
18781;DHT22;9519;51.890;8.970;2023-04-06T23:19:24;9.80;69.20
18781;DHT22;9519;51.890;8.970;2023-04-06T23:24:27;9.70;68.80
18781;DHT22;9519;51.890;8.970;2023-04-06T23:29:29;9.70;69.90
18781;DHT22;9519;51.890;8.970;2023-04-06T23:34:32;9.60;70.20
18781;DHT22;9519;51.890;8.970;2023-04-06T23:39:35;9.60;69.90
18781;DHT22;9519;51.890;8.970;2023-04-06T23:44:38;9.60;70.50
18781;DHT22;9519;51.890;8.970;2023-04-06T23:49:40;9.60;71.00
18781;DHT22;9519;51.890;8.970;2023-04-06T23:54:44;9.50;71.00
18781;DHT22;9519;51.890;8.970;2023-04-06T23:59:46;9.50;71.60
